Huvudsida
METAR-TAF:

METAR-TAF

Flygplatser :

Lycksele flygplats

Lycksele, Sverige

latitud: 64-32-51N, longitud: 018-43-03E, höjd: 211 m

Aktuellt väderrapport

Denna rapport gjordes för 16 minuter sedan, klockan 06:20 UTC
Vind 9 kt från nordväst, varierande mellan väst/nordväst och nord
Temperatur 12°C
Fuktighet 50%
Tryck 1003 hPa
Sikt 10 km eller mer

METAR: ESNL 210620Z AUTO 32009KT 290V360 9999 NCD 12/02 Q1003

Tid: 08:36 (06:36 UTC)


TAF: saknas

Aktuella väderrapporter och prognoser från 4000 flygplatser (METAR- och TAF-rapporter).

De tillgängliga stationerna syns som gula och röda prickar på kartan.

För musen över prickarna för att se namnen på stationerna.

Klicka sedan för att få väderrapporter och prognoser.

För att ändra kartan: Klicka på de gröna knapparna med ett svart kors på för att zooma in; den gröna knappen med ett streck på för att zooma ut; eller på de gröna pilarna för angränsande kartor.


METAR-TAF: